sensor_id;sensor_type;location;lat;lon;timestamp;P1;durP1;ratioP1;P2;durP2;ratioP2
12493;SDS011;8260;51.422;6.786;2022-07-10T00:01:32;3.53;;;2.05;;
12493;SDS011;8260;51.422;6.786;2022-07-10T00:04:01;5.28;;;1.90;;
12493;SDS011;8260;51.422;6.786;2022-07-10T00:06:30;5.45;;;2.10;;
12493;SDS011;8260;51.422;6.786;2022-07-10T00:08:59;6.85;;;2.13;;
12493;SDS011;8260;51.422;6.786;2022-07-10T00:11:28;8.38;;;2.00;;
12493;SDS011;8260;51.422;6.786;2022-07-10T00:13:56;5.43;;;1.80;;
12493;SDS011;8260;51.422;6.786;2022-07-10T00:16:25;7.35;;;2.05;;
12493;SDS011;8260;51.422;6.786;2022-07-10T00:18:53;4.50;;;1.75;;
12493;SDS011;8260;51.422;6.786;2022-07-10T00:21:21;5.50;;;2.17;;
12493;SDS011;8260;51.422;6.786;2022-07-10T00:23:50;7.88;;;2.25;;
12493;SDS011;8260;51.422;6.786;2022-07-10T00:26:20;4.93;;;1.88;;
12493;SDS011;8260;51.422;6.786;2022-07-10T00:28:48;3.78;;;1.55;;
12493;SDS011;8260;51.422;6.786;2022-07-10T00:31:17;5.93;;;2.00;;
12493;SDS011;8260;51.422;6.786;2022-07-10T00:33:45;3.50;;;1.67;;
12493;SDS011;8260;51.422;6.786;2022-07-10T00:36:14;4.28;;;1.35;;
12493;SDS011;8260;51.422;6.786;2022-07-10T00:38:42;7.47;;;1.80;;
12493;SDS011;8260;51.422;6.786;2022-07-10T00:41:11;8.32;;;1.85;;
12493;SDS011;8260;51.422;6.786;2022-07-10T00:43:53;4.72;;;1.75;;
12493;SDS011;8260;51.422;6.786;2022-07-10T00:46:21;3.78;;;1.75;;
12493;SDS011;8260;51.422;6.786;2022-07-10T00:48:50;3.88;;;1.65;;
12493;SDS011;8260;51.422;6.786;2022-07-10T00:51:19;4.75;;;1.85;;
12493;SDS011;8260;51.422;6.786;2022-07-10T00:53:48;4.03;;;1.80;;
12493;SDS011;8260;51.422;6.786;2022-07-10T00:56:18;6.10;;;2.05;;
12493;SDS011;8260;51.422;6.786;2022-07-10T00:58:47;5.25;;;2.00;;
12493;SDS011;8260;51.422;6.786;2022-07-10T01:01:18;5.53;;;2.28;;
12493;SDS011;8260;51.422;6.786;2022-07-10T01:03:47;5.40;;;1.92;;
12493;SDS011;8260;51.422;6.786;2022-07-10T01:06:16;7.28;;;2.25;;
12493;SDS011;8260;51.422;6.786;2022-07-10T01:08:44;5.28;;;2.22;;
12493;SDS011;8260;51.422;6.786;2022-07-10T01:11:13;4.47;;;2.40;;
12493;SDS011;8260;51.422;6.786;2022-07-10T01:13:42;9.82;;;2.67;;
12493;SDS011;8260;51.422;6.786;2022-07-10T01:16:11;4.28;;;2.00;;
12493;SDS011;8260;51.422;6.786;2022-07-10T01:18:41;7.72;;;2.20;;
12493;SDS011;8260;51.422;6.786;2022-07-10T01:21:23;6.40;;;2.38;;
12493;SDS011;8260;51.422;6.786;2022-07-10T01:23:52;6.18;;;2.10;;
12493;SDS011;8260;51.422;6.786;2022-07-10T01:26:21;5.68;;;2.22;;
12493;SDS011;8260;51.422;6.786;2022-07-10T01:28:51;5.97;;;2.10;;
12493;SDS011;8260;51.422;6.786;2022-07-10T01:31:20;4.57;;;2.65;;
12493;SDS011;8260;51.422;6.786;2022-07-10T01:33:52;4.90;;;2.30;;
12493;SDS011;8260;51.422;6.786;2022-07-10T01:36:21;7.88;;;2.42;;
12493;SDS011;8260;51.422;6.786;2022-07-10T01:38:52;6.82;;;2.80;;
12493;SDS011;8260;51.422;6.786;2022-07-10T01:41:20;6.88;;;2.15;;
12493;SDS011;8260;51.422;6.786;2022-07-10T01:43:49;3.35;;;1.95;;
12493;SDS011;8260;51.422;6.786;2022-07-10T01:46:17;7.63;;;2.28;;
12493;SDS011;8260;51.422;6.786;2022-07-10T01:48:46;7.28;;;2.33;;
12493;SDS011;8260;51.422;6.786;2022-07-10T01:51:15;5.85;;;2.00;;
12493;SDS011;8260;51.422;6.786;2022-07-10T01:53:43;8.30;;;2.22;;
12493;SDS011;8260;51.422;6.786;2022-07-10T01:56:13;7.28;;;2.30;;
12493;SDS011;8260;51.422;6.786;2022-07-10T01:58:42;8.75;;;2.35;;
12493;SDS011;8260;51.422;6.786;2022-07-10T02:01:11;5.40;;;2.65;;
12493;SDS011;8260;51.422;6.786;2022-07-10T02:03:39;5.30;;;2.45;;
12493;SDS011;8260;51.422;6.786;2022-07-10T02:06:25;5.03;;;2.10;;
12493;SDS011;8260;51.422;6.786;2022-07-10T02:08:54;6.40;;;2.40;;
12493;SDS011;8260;51.422;6.786;2022-07-10T02:11:23;7.28;;;2.30;;
12493;SDS011;8260;51.422;6.786;2022-07-10T02:13:52;5.35;;;2.17;;
12493;SDS011;8260;51.422;6.786;2022-07-10T02:16:20;5.97;;;2.10;;
12493;SDS011;8260;51.422;6.786;2022-07-10T02:18:49;4.13;;;1.88;;
12493;SDS011;8260;51.422;6.786;2022-07-10T02:21:19;7.63;;;2.00;;
12493;SDS011;8260;51.422;6.786;2022-07-10T02:23:48;6.57;;;2.40;;
12493;SDS011;8260;51.422;6.786;2022-07-10T02:26:16;5.78;;;2.25;;
12493;SDS011;8260;51.422;6.786;2022-07-10T02:28:46;4.40;;;2.00;;
12493;SDS011;8260;51.422;6.786;2022-07-10T02:31:14;6.15;;;2.20;;
12493;SDS011;8260;51.422;6.786;2022-07-10T02:33:43;5.88;;;1.83;;
12493;SDS011;8260;51.422;6.786;2022-07-10T02:36:11;3.63;;;2.05;;
12493;SDS011;8260;51.422;6.786;2022-07-10T02:38:40;5.25;;;2.20;;
12493;SDS011;8260;51.422;6.786;2022-07-10T02:41:08;6.40;;;2.42;;
12493;SDS011;8260;51.422;6.786;2022-07-10T02:43:37;5.20;;;2.22;;
12493;SDS011;8260;51.422;6.786;2022-07-10T02:46:07;7.97;;;2.55;;
12493;SDS011;8260;51.422;6.786;2022-07-10T02:48:35;6.00;;;2.10;;
12493;SDS011;8260;51.422;6.786;2022-07-10T02:51:05;5.25;;;2.05;;
12493;SDS011;8260;51.422;6.786;2022-07-10T02:53:33;7.35;;;2.00;;
12493;SDS011;8260;51.422;6.786;2022-07-10T02:56:02;6.95;;;2.40;;
12493;SDS011;8260;51.422;6.786;2022-07-10T02:58:31;6.30;;;2.13;;
12493;SDS011;8260;51.422;6.786;2022-07-10T03:01:00;7.35;;;2.28;;
12493;SDS011;8260;51.422;6.786;2022-07-10T03:03:30;3.78;;;2.17;;
12493;SDS011;8260;51.422;6.786;2022-07-10T03:06:00;6.22;;;2.15;;
12493;SDS011;8260;51.422;6.786;2022-07-10T03:08:29;4.90;;;1.90;;
12493;SDS011;8260;51.422;6.786;2022-07-10T03:10:57;5.68;;;2.28;;
12493;SDS011;8260;51.422;6.786;2022-07-10T03:13:25;5.20;;;2.00;;
12493;SDS011;8260;51.422;6.786;2022-07-10T03:15:54;6.22;;;2.13;;
12493;SDS011;8260;51.422;6.786;2022-07-10T03:18:22;8.00;;;2.08;;
12493;SDS011;8260;51.422;6.786;2022-07-10T03:20:52;4.43;;;2.20;;
12493;SDS011;8260;51.422;6.786;2022-07-10T03:23:21;4.50;;;1.63;;
12493;SDS011;8260;51.422;6.786;2022-07-10T03:25:49;5.40;;;2.13;;
12493;SDS011;8260;51.422;6.786;2022-07-10T03:28:17;3.72;;;2.22;;
12493;SDS011;8260;51.422;6.786;2022-07-10T03:30:46;5.60;;;2.10;;
12493;SDS011;8260;51.422;6.786;2022-07-10T03:33:14;5.18;;;2.25;;
12493;SDS011;8260;51.422;6.786;2022-07-10T03:35:43;3.55;;;2.20;;
12493;SDS011;8260;51.422;6.786;2022-07-10T03:38:13;4.13;;;1.95;;
12493;SDS011;8260;51.422;6.786;2022-07-10T03:40:41;5.20;;;2.42;;
12493;SDS011;8260;51.422;6.786;2022-07-10T03:43:13;3.90;;;2.10;;
12493;SDS011;8260;51.422;6.786;2022-07-10T03:45:42;6.13;;;2.35;;
12493;SDS011;8260;51.422;6.786;2022-07-10T03:48:10;4.78;;;2.10;;
12493;SDS011;8260;51.422;6.786;2022-07-10T03:50:39;8.93;;;2.45;;
12493;SDS011;8260;51.422;6.786;2022-07-10T03:53:07;4.53;;;2.45;;
12493;SDS011;8260;51.422;6.786;2022-07-10T03:55:37;6.97;;;2.50;;
12493;SDS011;8260;51.422;6.786;2022-07-10T03:58:06;4.32;;;2.35;;
12493;SDS011;8260;51.422;6.786;2022-07-10T04:00:33;5.30;;;2.40;;
12493;SDS011;8260;51.422;6.786;2022-07-10T04:03:05;3.55;;;2.20;;
12493;SDS011;8260;51.422;6.786;2022-07-10T04:05:33;8.05;;;3.45;;
12493;SDS011;8260;51.422;6.786;2022-07-10T04:08:02;7.35;;;2.50;;
12493;SDS011;8260;51.422;6.786;2022-07-10T04:10:31;6.00;;;2.60;;
12493;SDS011;8260;51.422;6.786;2022-07-10T04:13:01;6.88;;;2.70;;
12493;SDS011;8260;51.422;6.786;2022-07-10T04:15:29;9.90;;;2.90;;
12493;SDS011;8260;51.422;6.786;2022-07-10T04:17:58;4.30;;;2.75;;
12493;SDS011;8260;51.422;6.786;2022-07-10T04:20:26;8.60;;;3.03;;
12493;SDS011;8260;51.422;6.786;2022-07-10T04:22:56;6.93;;;3.00;;
12493;SDS011;8260;51.422;6.786;2022-07-10T04:25:24;5.80;;;3.15;;
12493;SDS011;8260;51.422;6.786;2022-07-10T04:27:52;6.68;;;2.55;;
12493;SDS011;8260;51.422;6.786;2022-07-10T04:30:22;6.47;;;2.90;;
12493;SDS011;8260;51.422;6.786;2022-07-10T04:32:51;4.88;;;3.30;;
12493;SDS011;8260;51.422;6.786;2022-07-10T04:35:19;5.53;;;2.63;;
12493;SDS011;8260;51.422;6.786;2022-07-10T04:37:48;8.07;;;3.28;;
12493;SDS011;8260;51.422;6.786;2022-07-10T04:40:16;5.03;;;2.58;;
12493;SDS011;8260;51.422;6.786;2022-07-10T04:42:45;5.43;;;2.50;;
12493;SDS011;8260;51.422;6.786;2022-07-10T04:45:13;5.07;;;2.85;;
12493;SDS011;8260;51.422;6.786;2022-07-10T04:47:43;6.78;;;2.53;;
12493;SDS011;8260;51.422;6.786;2022-07-10T04:50:11;12.23;;;3.28;;
12493;SDS011;8260;51.422;6.786;2022-07-10T04:52:40;3.70;;;2.20;;
12493;SDS011;8260;51.422;6.786;2022-07-10T04:55:08;8.35;;;2.35;;
12493;SDS011;8260;51.422;6.786;2022-07-10T04:57:37;7.03;;;2.78;;
12493;SDS011;8260;51.422;6.786;2022-07-10T05:00:08;4.72;;;2.45;;
12493;SDS011;8260;51.422;6.786;2022-07-10T05:02:37;7.45;;;3.17;;
12493;SDS011;8260;51.422;6.786;2022-07-10T05:05:07;11.32;;;2.95;;
12493;SDS011;8260;51.422;6.786;2022-07-10T05:07:36;9.27;;;2.92;;
12493;SDS011;8260;51.422;6.786;2022-07-10T05:10:05;6.60;;;3.10;;
12493;SDS011;8260;51.422;6.786;2022-07-10T05:12:33;6.43;;;3.20;;
12493;SDS011;8260;51.422;6.786;2022-07-10T05:15:02;4.70;;;2.95;;
12493;SDS011;8260;51.422;6.786;2022-07-10T05:17:31;11.32;;;3.60;;
12493;SDS011;8260;51.422;6.786;2022-07-10T05:19:59;5.65;;;2.83;;
12493;SDS011;8260;51.422;6.786;2022-07-10T05:22:29;6.07;;;3.10;;
12493;SDS011;8260;51.422;6.786;2022-07-10T05:24:57;7.15;;;3.33;;
12493;SDS011;8260;51.422;6.786;2022-07-10T05:27:26;5.32;;;3.20;;
12493;SDS011;8260;51.422;6.786;2022-07-10T05:29:54;11.45;;;3.65;;
12493;SDS011;8260;51.422;6.786;2022-07-10T05:32:22;8.38;;;3.00;;
12493;SDS011;8260;51.422;6.786;2022-07-10T05:34:51;4.30;;;2.95;;
12493;SDS011;8260;51.422;6.786;2022-07-10T05:37:20;4.28;;;3.00;;
12493;SDS011;8260;51.422;6.786;2022-07-10T05:39:49;8.15;;;2.72;;
12493;SDS011;8260;51.422;6.786;2022-07-10T05:42:18;7.18;;;3.05;;
12493;SDS011;8260;51.422;6.786;2022-07-10T05:44:46;9.38;;;2.65;;
12493;SDS011;8260;51.422;6.786;2022-07-10T05:47:14;5.38;;;2.47;;
12493;SDS011;8260;51.422;6.786;2022-07-10T05:49:43;7.57;;;2.63;;
12493;SDS011;8260;51.422;6.786;2022-07-10T05:52:11;8.13;;;2.70;;
12493;SDS011;8260;51.422;6.786;2022-07-10T05:54:40;8.00;;;2.60;;
12493;SDS011;8260;51.422;6.786;2022-07-10T05:57:09;6.95;;;2.92;;
12493;SDS011;8260;51.422;6.786;2022-07-10T05:59:38;6.97;;;2.78;;
12493;SDS011;8260;51.422;6.786;2022-07-10T06:02:07;4.60;;;2.40;;
12493;SDS011;8260;51.422;6.786;2022-07-10T06:04:35;4.35;;;2.15;;
12493;SDS011;8260;51.422;6.786;2022-07-10T06:07:04;5.25;;;2.25;;
12493;SDS011;8260;51.422;6.786;2022-07-10T06:09:32;6.75;;;2.22;;
12493;SDS011;8260;51.422;6.786;2022-07-10T06:12:01;8.15;;;2.70;;
12493;SDS011;8260;51.422;6.786;2022-07-10T06:14:31;6.72;;;2.70;;
12493;SDS011;8260;51.422;6.786;2022-07-10T06:16:59;7.57;;;2.25;;
12493;SDS011;8260;51.422;6.786;2022-07-10T06:19:28;6.53;;;2.70;;
12493;SDS011;8260;51.422;6.786;2022-07-10T06:21:56;8.52;;;2.50;;
12493;SDS011;8260;51.422;6.786;2022-07-10T06:24:42;6.53;;;2.22;;
12493;SDS011;8260;51.422;6.786;2022-07-10T06:27:11;6.30;;;2.58;;
12493;SDS011;8260;51.422;6.786;2022-07-10T06:29:41;7.93;;;2.53;;
12493;SDS011;8260;51.422;6.786;2022-07-10T06:32:09;5.00;;;2.25;;
12493;SDS011;8260;51.422;6.786;2022-07-10T06:34:38;7.25;;;2.50;;
12493;SDS011;8260;51.422;6.786;2022-07-10T06:37:06;6.35;;;2.50;;
12493;SDS011;8260;51.422;6.786;2022-07-10T06:39:34;6.60;;;2.03;;
12493;SDS011;8260;51.422;6.786;2022-07-10T06:42:03;6.28;;;2.38;;
12493;SDS011;8260;51.422;6.786;2022-07-10T06:44:32;6.70;;;2.33;;
12493;SDS011;8260;51.422;6.786;2022-07-10T06:47:02;7.68;;;2.60;;
12493;SDS011;8260;51.422;6.786;2022-07-10T06:49:48;7.35;;;2.35;;
12493;SDS011;8260;51.422;6.786;2022-07-10T06:52:17;6.82;;;3.00;;
12493;SDS011;8260;51.422;6.786;2022-07-10T06:54:45;6.95;;;2.92;;
12493;SDS011;8260;51.422;6.786;2022-07-10T06:57:14;5.22;;;2.70;;
12493;SDS011;8260;51.422;6.786;2022-07-10T06:59:44;8.95;;;2.97;;
12493;SDS011;8260;51.422;6.786;2022-07-10T07:02:13;5.10;;;2.40;;
12493;SDS011;8260;51.422;6.786;2022-07-10T07:04:42;7.53;;;2.95;;
12493;SDS011;8260;51.422;6.786;2022-07-10T07:07:12;7.07;;;3.03;;
12493;SDS011;8260;51.422;6.786;2022-07-10T07:09:45;7.75;;;2.70;;
12493;SDS011;8260;51.422;6.786;2022-07-10T07:12:16;6.50;;;2.58;;
12493;SDS011;8260;51.422;6.786;2022-07-10T07:14:44;8.77;;;3.13;;
12493;SDS011;8260;51.422;6.786;2022-07-10T07:17:15;8.35;;;2.92;;
12493;SDS011;8260;51.422;6.786;2022-07-10T07:19:48;6.47;;;2.67;;
12493;SDS011;8260;51.422;6.786;2022-07-10T07:22:35;7.15;;;2.63;;
12493;SDS011;8260;51.422;6.786;2022-07-10T07:25:21;7.88;;;3.10;;
12493;SDS011;8260;51.422;6.786;2022-07-10T07:27:50;7.18;;;3.22;;
12493;SDS011;8260;51.422;6.786;2022-07-10T07:30:18;6.97;;;3.75;;
12493;SDS011;8260;51.422;6.786;2022-07-10T07:32:48;10.60;;;3.90;;
12493;SDS011;8260;51.422;6.786;2022-07-10T07:35:16;9.00;;;4.13;;
12493;SDS011;8260;51.422;6.786;2022-07-10T07:37:45;8.32;;;3.35;;
12493;SDS011;8260;51.422;6.786;2022-07-10T07:40:17;7.22;;;3.22;;
12493;SDS011;8260;51.422;6.786;2022-07-10T07:42:47;9.82;;;3.45;;
12493;SDS011;8260;51.422;6.786;2022-07-10T07:45:16;7.85;;;3.40;;
12493;SDS011;8260;51.422;6.786;2022-07-10T07:47:45;4.90;;;3.08;;
12493;SDS011;8260;51.422;6.786;2022-07-10T07:50:17;5.72;;;3.13;;
12493;SDS011;8260;51.422;6.786;2022-07-10T07:52:46;5.57;;;2.75;;
12493;SDS011;8260;51.422;6.786;2022-07-10T07:55:14;6.88;;;3.38;;
12493;SDS011;8260;51.422;6.786;2022-07-10T07:57:43;7.68;;;3.00;;
12493;SDS011;8260;51.422;6.786;2022-07-10T08:00:12;6.30;;;2.92;;
12493;SDS011;8260;51.422;6.786;2022-07-10T08:02:43;4.40;;;3.03;;
12493;SDS011;8260;51.422;6.786;2022-07-10T08:05:12;9.10;;;3.40;;
12493;SDS011;8260;51.422;6.786;2022-07-10T08:07:43;7.07;;;3.35;;
12493;SDS011;8260;51.422;6.786;2022-07-10T08:10:12;7.88;;;3.30;;
12493;SDS011;8260;51.422;6.786;2022-07-10T08:12:40;8.32;;;3.63;;
12493;SDS011;8260;51.422;6.786;2022-07-10T08:15:10;9.18;;;3.70;;
12493;SDS011;8260;51.422;6.786;2022-07-10T08:17:38;9.30;;;4.10;;
12493;SDS011;8260;51.422;6.786;2022-07-10T08:20:08;8.40;;;3.92;;
12493;SDS011;8260;51.422;6.786;2022-07-10T08:22:38;6.15;;;3.75;;
12493;SDS011;8260;51.422;6.786;2022-07-10T08:25:09;10.68;;;4.43;;
12493;SDS011;8260;51.422;6.786;2022-07-10T08:27:38;6.38;;;3.65;;
12493;SDS011;8260;51.422;6.786;2022-07-10T08:30:07;8.40;;;4.25;;
12493;SDS011;8260;51.422;6.786;2022-07-10T08:32:36;10.05;;;4.22;;
12493;SDS011;8260;51.422;6.786;2022-07-10T08:35:05;7.50;;;3.75;;
12493;SDS011;8260;51.422;6.786;2022-07-10T08:37:36;7.30;;;4.00;;
12493;SDS011;8260;51.422;6.786;2022-07-10T08:40:05;7.88;;;4.22;;
12493;SDS011;8260;51.422;6.786;2022-07-10T08:42:35;4.82;;;4.07;;
12493;SDS011;8260;51.422;6.786;2022-07-10T08:45:04;5.45;;;3.78;;
12493;SDS011;8260;51.422;6.786;2022-07-10T08:47:34;5.03;;;3.67;;
12493;SDS011;8260;51.422;6.786;2022-07-10T08:50:05;6.95;;;4.15;;
12493;SDS011;8260;51.422;6.786;2022-07-10T08:52:41;9.50;;;4.40;;
12493;SDS011;8260;51.422;6.786;2022-07-10T08:58:35;5.63;;;3.42;;
12493;SDS011;8260;51.422;6.786;2022-07-10T09:01:05;7.10;;;3.67;;
12493;SDS011;8260;51.422;6.786;2022-07-10T09:03:33;8.02;;;3.78;;
12493;SDS011;8260;51.422;6.786;2022-07-10T09:06:04;7.28;;;3.90;;
12493;SDS011;8260;51.422;6.786;2022-07-10T09:08:33;10.23;;;4.15;;
12493;SDS011;8260;51.422;6.786;2022-07-10T09:11:13;6.50;;;3.80;;
12493;SDS011;8260;51.422;6.786;2022-07-10T09:13:52;9.65;;;4.45;;
12493;SDS011;8260;51.422;6.786;2022-07-10T09:16:25;8.07;;;4.22;;
12493;SDS011;8260;51.422;6.786;2022-07-10T09:18:54;7.20;;;4.22;;
12493;SDS011;8260;51.422;6.786;2022-07-10T09:21:23;7.45;;;4.05;;
12493;SDS011;8260;51.422;6.786;2022-07-10T09:23:55;8.57;;;3.75;;
12493;SDS011;8260;51.422;6.786;2022-07-10T09:26:26;7.35;;;3.95;;
12493;SDS011;8260;51.422;6.786;2022-07-10T09:29:06;10.40;;;4.38;;
12493;SDS011;8260;51.422;6.786;2022-07-10T09:31:47;10.05;;;4.25;;
12493;SDS011;8260;51.422;6.786;2022-07-10T09:34:16;6.35;;;3.92;;
12493;SDS011;8260;51.422;6.786;2022-07-10T09:36:45;6.28;;;3.35;;
12493;SDS011;8260;51.422;6.786;2022-07-10T09:39:13;9.32;;;4.07;;
12493;SDS011;8260;51.422;6.786;2022-07-10T09:41:42;7.82;;;3.95;;
12493;SDS011;8260;51.422;6.786;2022-07-10T09:44:12;9.25;;;4.03;;
12493;SDS011;8260;51.422;6.786;2022-07-10T09:46:42;9.00;;;4.18;;
12493;SDS011;8260;51.422;6.786;2022-07-10T09:49:12;9.70;;;4.82;;
12493;SDS011;8260;51.422;6.786;2022-07-10T09:51:41;10.60;;;5.50;;
12493;SDS011;8260;51.422;6.786;2022-07-10T09:54:14;14.93;;;7.80;;
12493;SDS011;8260;51.422;6.786;2022-07-10T09:56:45;8.70;;;5.50;;
12493;SDS011;8260;51.422;6.786;2022-07-10T09:59:15;7.22;;;4.32;;
12493;SDS011;8260;51.422;6.786;2022-07-10T10:01:44;4.65;;;3.67;;
12493;SDS011;8260;51.422;6.786;2022-07-10T10:04:14;4.20;;;3.38;;
12493;SDS011;8260;51.422;6.786;2022-07-10T10:06:43;5.22;;;3.97;;
12493;SDS011;8260;51.422;6.786;2022-07-10T10:09:15;4.68;;;4.28;;
12493;SDS011;8260;51.422;6.786;2022-07-10T10:11:48;4.15;;;3.78;;
12493;SDS011;8260;51.422;6.786;2022-07-10T10:14:18;4.50;;;4.10;;
12493;SDS011;8260;51.422;6.786;2022-07-10T10:16:47;4.55;;;4.18;;
12493;SDS011;8260;51.422;6.786;2022-07-10T10:19:16;7.05;;;4.38;;
12493;SDS011;8260;51.422;6.786;2022-07-10T10:22:04;5.80;;;4.30;;
12493;SDS011;8260;51.422;6.786;2022-07-10T10:24:39;4.75;;;3.22;;
12493;SDS011;8260;51.422;6.786;2022-07-10T10:27:08;3.30;;;2.70;;
12493;SDS011;8260;51.422;6.786;2022-07-10T10:29:38;3.03;;;2.63;;
12493;SDS011;8260;51.422;6.786;2022-07-10T10:32:07;3.78;;;2.70;;
12493;SDS011;8260;51.422;6.786;2022-07-10T10:34:42;3.15;;;2.60;;
12493;SDS011;8260;51.422;6.786;2022-07-10T10:39:58;3.05;;;2.78;;
12493;SDS011;8260;51.422;6.786;2022-07-10T10:42:33;3.38;;;2.72;;
12493;SDS011;8260;51.422;6.786;2022-07-10T10:48:00;3.28;;;2.70;;
12493;SDS011;8260;51.422;6.786;2022-07-10T10:50:49;3.45;;;2.40;;
12493;SDS011;8260;51.422;6.786;2022-07-10T10:53:19;4.20;;;2.78;;
12493;SDS011;8260;51.422;6.786;2022-07-10T10:58:36;4.05;;;2.58;;
12493;SDS011;8260;51.422;6.786;2022-07-10T11:01:23;4.28;;;2.80;;
12493;SDS011;8260;51.422;6.786;2022-07-10T11:06:41;3.03;;;2.47;;
12493;SDS011;8260;51.422;6.786;2022-07-10T11:09:26;3.25;;;2.30;;
12493;SDS011;8260;51.422;6.786;2022-07-10T11:12:01;3.17;;;2.60;;
12493;SDS011;8260;51.422;6.786;2022-07-10T11:14:32;4.97;;;2.45;;
12493;SDS011;8260;51.422;6.786;2022-07-10T11:17:03;4.75;;;2.58;;
12493;SDS011;8260;51.422;6.786;2022-07-10T11:19:32;3.72;;;2.58;;
12493;SDS011;8260;51.422;6.786;2022-07-10T11:22:13;3.88;;;2.35;;
12493;SDS011;8260;51.422;6.786;2022-07-10T11:24:49;4.10;;;2.38;;
12493;SDS011;8260;51.422;6.786;2022-07-10T11:27:24;5.85;;;2.83;;
12493;SDS011;8260;51.422;6.786;2022-07-10T11:29:57;4.88;;;2.42;;
12493;SDS011;8260;51.422;6.786;2022-07-10T11:32:26;4.00;;;2.20;;
12493;SDS011;8260;51.422;6.786;2022-07-10T11:34:55;3.13;;;2.17;;
12493;SDS011;8260;51.422;6.786;2022-07-10T11:37:25;3.63;;;2.45;;
12493;SDS011;8260;51.422;6.786;2022-07-10T11:40:09;2.65;;;2.33;;
12493;SDS011;8260;51.422;6.786;2022-07-10T11:42:48;4.22;;;2.20;;
12493;SDS011;8260;51.422;6.786;2022-07-10T11:45:21;3.45;;;2.35;;
12493;SDS011;8260;51.422;6.786;2022-07-10T11:47:50;4.68;;;2.10;;
12493;SDS011;8260;51.422;6.786;2022-07-10T11:50:18;4.97;;;2.70;;
12493;SDS011;8260;51.422;6.786;2022-07-10T11:52:48;4.70;;;2.92;;
12493;SDS011;8260;51.422;6.786;2022-07-10T11:55:17;6.18;;;2.97;;
12493;SDS011;8260;51.422;6.786;2022-07-10T11:57:46;4.25;;;2.28;;
12493;SDS011;8260;51.422;6.786;2022-07-10T12:00:22;5.60;;;2.17;;
12493;SDS011;8260;51.422;6.786;2022-07-10T12:02:51;5.00;;;2.40;;
12493;SDS011;8260;51.422;6.786;2022-07-10T12:05:32;4.45;;;2.53;;
12493;SDS011;8260;51.422;6.786;2022-07-10T12:08:02;4.93;;;2.38;;
12493;SDS011;8260;51.422;6.786;2022-07-10T12:10:31;5.82;;;2.65;;
12493;SDS011;8260;51.422;6.786;2022-07-10T12:13:04;5.50;;;2.78;;
12493;SDS011;8260;51.422;6.786;2022-07-10T12:15:33;5.70;;;2.83;;
12493;SDS011;8260;51.422;6.786;2022-07-10T12:18:04;5.97;;;2.92;;
12493;SDS011;8260;51.422;6.786;2022-07-10T12:20:33;6.05;;;3.28;;
12493;SDS011;8260;51.422;6.786;2022-07-10T12:23:04;8.07;;;3.65;;
12493;SDS011;8260;51.422;6.786;2022-07-10T12:25:32;5.18;;;3.20;;
12493;SDS011;8260;51.422;6.786;2022-07-10T12:28:01;5.88;;;3.85;;
12493;SDS011;8260;51.422;6.786;2022-07-10T12:30:37;5.88;;;3.70;;
12493;SDS011;8260;51.422;6.786;2022-07-10T12:33:09;7.43;;;3.97;;
12493;SDS011;8260;51.422;6.786;2022-07-10T12:35:49;6.43;;;3.72;;
12493;SDS011;8260;51.422;6.786;2022-07-10T12:38:19;7.25;;;4.07;;
12493;SDS011;8260;51.422;6.786;2022-07-10T12:40:48;5.05;;;3.63;;
12493;SDS011;8260;51.422;6.786;2022-07-10T12:43:26;9.32;;;3.10;;
12493;SDS011;8260;51.422;6.786;2022-07-10T12:46:07;4.18;;;3.15;;
12493;SDS011;8260;51.422;6.786;2022-07-10T12:48:36;6.47;;;3.20;;
12493;SDS011;8260;51.422;6.786;2022-07-10T12:51:23;5.97;;;3.10;;
12493;SDS011;8260;51.422;6.786;2022-07-10T12:53:53;5.22;;;3.10;;
12493;SDS011;8260;51.422;6.786;2022-07-10T12:56:28;4.22;;;3.08;;
12493;SDS011;8260;51.422;6.786;2022-07-10T12:58:57;5.57;;;3.10;;
12493;SDS011;8260;51.422;6.786;2022-07-10T13:01:26;7.28;;;2.97;;
12493;SDS011;8260;51.422;6.786;2022-07-10T13:03:59;4.07;;;2.78;;
12493;SDS011;8260;51.422;6.786;2022-07-10T13:06:28;4.13;;;2.53;;
12493;SDS011;8260;51.422;6.786;2022-07-10T13:08:58;4.88;;;3.38;;
12493;SDS011;8260;51.422;6.786;2022-07-10T13:11:27;5.07;;;3.10;;
12493;SDS011;8260;51.422;6.786;2022-07-10T13:13:55;6.10;;;3.08;;
12493;SDS011;8260;51.422;6.786;2022-07-10T13:16:23;3.78;;;2.40;;
12493;SDS011;8260;51.422;6.786;2022-07-10T13:18:52;4.57;;;2.55;;
12493;SDS011;8260;51.422;6.786;2022-07-10T13:21:21;4.75;;;2.90;;
12493;SDS011;8260;51.422;6.786;2022-07-10T13:23:50;5.78;;;2.13;;
12493;SDS011;8260;51.422;6.786;2022-07-10T13:26:19;3.78;;;2.40;;
12493;SDS011;8260;51.422;6.786;2022-07-10T13:28:48;2.92;;;1.98;;
12493;SDS011;8260;51.422;6.786;2022-07-10T13:31:16;2.72;;;1.75;;
12493;SDS011;8260;51.422;6.786;2022-07-10T13:33:44;3.33;;;1.65;;
12493;SDS011;8260;51.422;6.786;2022-07-10T13:36:13;2.90;;;1.67;;
12493;SDS011;8260;51.422;6.786;2022-07-10T13:38:41;3.47;;;2.00;;
12493;SDS011;8260;51.422;6.786;2022-07-10T13:41:10;3.05;;;1.92;;
12493;SDS011;8260;51.422;6.786;2022-07-10T13:43:39;4.13;;;2.28;;
12493;SDS011;8260;51.422;6.786;2022-07-10T13:46:08;4.32;;;1.90;;
12493;SDS011;8260;51.422;6.786;2022-07-10T13:48:36;2.63;;;1.70;;
12493;SDS011;8260;51.422;6.786;2022-07-10T13:51:05;4.28;;;1.90;;
12493;SDS011;8260;51.422;6.786;2022-07-10T13:53:33;4.78;;;1.90;;
12493;SDS011;8260;51.422;6.786;2022-07-10T13:56:04;3.67;;;1.70;;
12493;SDS011;8260;51.422;6.786;2022-07-10T13:58:37;3.42;;;1.70;;
12493;SDS011;8260;51.422;6.786;2022-07-10T14:01:07;2.72;;;1.70;;
12493;SDS011;8260;51.422;6.786;2022-07-10T14:03:35;3.83;;;1.80;;
12493;SDS011;8260;51.422;6.786;2022-07-10T14:06:04;3.15;;;2.25;;
12493;SDS011;8260;51.422;6.786;2022-07-10T14:08:33;5.70;;;2.03;;
12493;SDS011;8260;51.422;6.786;2022-07-10T14:11:01;3.63;;;2.20;;
12493;SDS011;8260;51.422;6.786;2022-07-10T14:13:30;3.83;;;2.03;;
12493;SDS011;8260;51.422;6.786;2022-07-10T14:15:58;3.50;;;1.98;;
12493;SDS011;8260;51.422;6.786;2022-07-10T14:18:28;5.72;;;2.33;;
12493;SDS011;8260;51.422;6.786;2022-07-10T14:21:05;5.13;;;2.25;;
12493;SDS011;8260;51.422;6.786;2022-07-10T14:23:35;4.53;;;2.55;;
12493;SDS011;8260;51.422;6.786;2022-07-10T14:26:04;3.42;;;1.83;;
12493;SDS011;8260;51.422;6.786;2022-07-10T14:28:33;3.15;;;1.98;;
12493;SDS011;8260;51.422;6.786;2022-07-10T14:31:02;1.75;;;1.50;;
12493;SDS011;8260;51.422;6.786;2022-07-10T14:33:32;3.20;;;1.80;;
12493;SDS011;8260;51.422;6.786;2022-07-10T14:36:00;3.58;;;1.85;;
12493;SDS011;8260;51.422;6.786;2022-07-10T14:38:29;3.90;;;2.28;;
12493;SDS011;8260;51.422;6.786;2022-07-10T14:40:58;3.05;;;2.08;;
12493;SDS011;8260;51.422;6.786;2022-07-10T14:43:27;3.72;;;2.00;;
12493;SDS011;8260;51.422;6.786;2022-07-10T14:45:58;3.22;;;1.67;;
12493;SDS011;8260;51.422;6.786;2022-07-10T14:48:29;4.72;;;2.38;;
12493;SDS011;8260;51.422;6.786;2022-07-10T14:51:00;2.45;;;1.90;;
12493;SDS011;8260;51.422;6.786;2022-07-10T14:53:29;2.72;;;1.98;;
12493;SDS011;8260;51.422;6.786;2022-07-10T14:56:01;2.88;;;1.80;;
12493;SDS011;8260;51.422;6.786;2022-07-10T14:58:30;5.68;;;2.40;;
12493;SDS011;8260;51.422;6.786;2022-07-10T15:01:18;2.40;;;1.77;;
12493;SDS011;8260;51.422;6.786;2022-07-10T15:03:47;3.53;;;1.73;;
12493;SDS011;8260;51.422;6.786;2022-07-10T15:06:17;3.50;;;1.77;;
12493;SDS011;8260;51.422;6.786;2022-07-10T15:08:45;3.53;;;1.88;;
12493;SDS011;8260;51.422;6.786;2022-07-10T15:11:17;3.38;;;2.03;;
12493;SDS011;8260;51.422;6.786;2022-07-10T15:13:47;3.30;;;1.95;;
12493;SDS011;8260;51.422;6.786;2022-07-10T15:16:24;1.60;;;1.50;;
12493;SDS011;8260;51.422;6.786;2022-07-10T15:18:54;2.47;;;2.00;;
12493;SDS011;8260;51.422;6.786;2022-07-10T15:21:24;4.07;;;2.00;;
12493;SDS011;8260;51.422;6.786;2022-07-10T15:23:54;2.10;;;1.88;;
12493;SDS011;8260;51.422;6.786;2022-07-10T15:26:22;3.38;;;2.17;;
12493;SDS011;8260;51.422;6.786;2022-07-10T15:28:51;2.22;;;1.98;;
12493;SDS011;8260;51.422;6.786;2022-07-10T15:31:21;3.13;;;2.10;;
12493;SDS011;8260;51.422;6.786;2022-07-10T15:33:50;5.65;;;2.28;;